createdAt,value
2022-09-23T00:02:17.346Z,21.48
2022-09-23T00:09:00.053Z,19.38
2022-09-23T00:12:29.077Z,21.92
2022-09-23T00:14:58.696Z,22.27
2022-09-23T00:17:27.299Z,23.45
2022-09-23T00:19:55.699Z,22.60
2022-09-23T00:22:24.075Z,23.27
2022-09-23T00:24:52.240Z,24.80
2022-09-23T00:27:21.104Z,22.67
2022-09-23T00:29:49.693Z,22.48
2022-09-23T00:32:19.327Z,23.83
2022-09-23T00:34:47.978Z,25.25
2022-09-23T00:37:16.671Z,23.50
2022-09-23T00:39:45.853Z,23.17
2022-09-23T00:42:16.801Z,25.23
2022-09-23T00:44:50.128Z,26.77
2022-09-23T00:47:23.340Z,26.27
2022-09-23T00:50:01.891Z,26.33
2022-09-23T00:54:33.049Z,27.80
2022-09-23T00:57:01.209Z,28.27
2022-09-23T00:59:47.639Z,28.63
2022-09-23T01:02:16.873Z,29.83
2022-09-23T01:04:46.553Z,27.95
2022-09-23T01:07:14.911Z,27.85
2022-09-23T01:09:43.154Z,28.45
2022-09-23T01:12:28.029Z,29.05
2022-09-23T01:15:03.783Z,30.10
2022-09-23T01:17:39.530Z,29.90
2022-09-23T01:20:38.591Z,29.67
2022-09-23T01:23:22.657Z,28.75
2022-09-23T01:26:15.065Z,28.48
2022-09-23T01:29:03.480Z,27.98
2022-09-23T01:31:41.513Z,27.45
2022-09-23T01:34:15.267Z,27.13
2022-09-23T01:36:49.347Z,29.05
2022-09-23T01:39:28.110Z,27.25
2022-09-23T01:42:02.698Z,27.63
2022-09-23T01:44:36.932Z,27.02
2022-09-23T01:47:12.371Z,26.70
2022-09-23T01:49:46.577Z,28.02
2022-09-23T01:52:19.418Z,28.45
2022-09-23T01:54:54.313Z,29.60
2022-09-23T01:57:28.850Z,29.27
2022-09-23T02:00:04.540Z,29.85
2022-09-23T02:02:49.707Z,31.00
2022-09-23T02:05:23.475Z,30.02
2022-09-23T02:07:59.439Z,30.35
2022-09-23T02:10:33.672Z,29.60
2022-09-23T02:13:06.510Z,30.15
2022-09-23T02:15:40.354Z,27.73
2022-09-23T02:18:14.218Z,25.85
2022-09-23T02:20:42.875Z,25.90
2022-09-23T02:23:14.275Z,25.58
2022-09-23T02:25:53.842Z,26.88
2022-09-23T02:28:28.435Z,27.92
2022-09-23T02:31:08.716Z,27.90
2022-09-23T02:33:42.837Z,28.90
2022-09-23T02:36:16.349Z,30.48
2022-09-23T02:38:50.861Z,27.60
2022-09-23T02:42:02.057Z,28.33
2022-09-23T02:45:32.023Z,27.50
2022-09-23T02:48:05.343Z,27.92
2022-09-23T02:50:35.731Z,30.00
2022-09-23T02:53:04.773Z,29.88
2022-09-23T02:55:33.294Z,29.08
2022-09-23T02:58:03.109Z,29.05
2022-09-23T03:00:44.417Z,29.15
2022-09-23T03:03:30.916Z,29.13
2022-09-23T03:06:09.070Z,28.80
2022-09-23T03:08:48.657Z,26.77
2022-09-23T03:11:17.682Z,27.23
2022-09-23T03:13:58.590Z,26.15
2022-09-23T03:16:35.798Z,25.05
2022-09-23T03:19:24.100Z,25.42
2022-09-23T03:22:00.877Z,23.35
2022-09-23T03:24:32.179Z,20.95
2022-09-23T03:27:05.568Z,20.85
2022-09-23T03:29:37.372Z,22.52
2022-09-23T03:32:08.357Z,23.15
2022-09-23T03:34:39.152Z,22.45
2022-09-23T03:37:15.865Z,23.02
2022-09-23T03:39:47.915Z,20.77
2022-09-23T03:44:03.716Z,21.23
2022-09-23T03:49:35.122Z,21.17
2022-09-23T03:52:03.940Z,20.92
2022-09-23T03:54:34.210Z,19.88
2022-09-23T03:57:03.501Z,19.17
2022-09-23T03:59:32.246Z,20.52
2022-09-23T04:02:01.934Z,18.58
2022-09-23T04:04:34.012Z,18.50
2022-09-23T04:07:02.651Z,18.95
2022-09-23T04:09:31.294Z,19.83
2022-09-23T04:12:00.894Z,19.42
2022-09-23T04:14:29.179Z,18.98
2022-09-23T04:16:57.487Z,20.75
2022-09-23T04:19:25.891Z,20.08
2022-09-23T04:21:54.182Z,18.90
2022-09-23T04:24:22.934Z,19.65
2022-09-23T04:26:53.440Z,20.42
2022-09-23T04:29:24.025Z,20.42
2022-09-23T04:31:52.946Z,21.05
2022-09-23T04:34:21.837Z,21.33
2022-09-23T04:36:50.685Z,20.08
2022-09-23T04:39:19.484Z,20.35
2022-09-23T04:41:48.055Z,21.15
2022-09-23T04:44:17.187Z,19.70
2022-09-23T04:46:48.216Z,20.55
2022-09-23T04:49:17.329Z,20.77
2022-09-23T04:51:45.604Z,21.70
2022-09-23T04:54:14.998Z,21.15
2022-09-23T04:56:43.598Z,19.52
2022-09-23T04:59:11.788Z,18.77
2022-09-23T05:01:40.248Z,18.48
2022-09-23T05:04:14.348Z,18.70
2022-09-23T05:06:45.415Z,18.23
2022-09-23T05:09:16.560Z,17.75
2022-09-23T05:11:47.378Z,13.77
2022-09-23T05:14:15.615Z,12.65
2022-09-23T05:16:43.926Z,13.30
2022-09-23T05:19:13.650Z,12.90
2022-09-23T05:21:42.164Z,13.73
2022-09-23T05:24:10.973Z,14.18
2022-09-23T05:26:39.390Z,14.90
2022-09-23T05:29:07.887Z,13.98
2022-09-23T05:31:36.826Z,14.70
2022-09-23T05:34:06.830Z,14.55
2022-09-23T05:36:39.186Z,13.63
2022-09-23T05:39:08.920Z,14.60
2022-09-23T05:41:38.318Z,14.27
2022-09-23T05:44:06.631Z,13.85
2022-09-23T05:46:35.298Z,13.95
2022-09-23T05:49:05.679Z,13.00
2022-09-23T05:51:36.338Z,13.10
2022-09-23T05:54:06.003Z,11.55
2022-09-23T05:56:35.634Z,11.80
2022-09-23T05:59:04.865Z,10.98
2022-09-23T06:01:35.247Z,11.75
2022-09-23T06:04:06.111Z,11.32
2022-09-23T06:06:37.714Z,10.15
2022-09-23T06:09:06.728Z,10.32
2022-09-23T06:11:36.292Z,9.75
2022-09-23T06:14:09.957Z,8.70
2022-09-23T06:16:38.243Z,9.07
2022-09-23T06:19:07.164Z,9.73
2022-09-23T06:23:07.678Z,8.85
2022-09-23T06:26:30.719Z,7.75
2022-09-23T06:30:01.631Z,9.23
2022-09-23T06:41:09.230Z,6.05
2022-09-23T06:51:21.044Z,5.05
2022-09-23T06:53:52.937Z,4.43
2022-09-23T06:56:23.770Z,5.28
2022-09-23T06:58:54.714Z,4.45
2022-09-23T07:01:24.329Z,3.75
2022-09-23T07:03:54.238Z,4.28
2022-09-23T07:06:22.457Z,3.53
2022-09-23T07:08:51.338Z,3.85
2022-09-23T07:11:25.536Z,4.47
2022-09-23T07:13:54.123Z,4.03
2022-09-23T07:16:22.461Z,4.18
2022-09-23T07:18:51.003Z,3.97
2022-09-23T07:21:20.128Z,3.95
2022-09-23T07:23:50.197Z,3.33
2022-09-23T07:26:19.445Z,3.97
2022-09-23T07:28:49.164Z,4.07
2022-09-23T07:31:36.616Z,3.03
2022-09-23T07:34:08.074Z,3.50
2022-09-23T07:36:37.492Z,3.40
2022-09-23T07:39:06.405Z,3.28
2022-09-23T07:41:35.874Z,3.95
2022-09-23T07:44:06.534Z,3.65
2022-09-23T07:46:37.202Z,3.20
2022-09-23T07:49:06.952Z,3.05
2022-09-23T07:51:37.213Z,3.92
2022-09-23T07:54:08.689Z,3.72
2022-09-23T07:56:38.420Z,3.42
2022-09-23T07:59:09.391Z,4.03
2022-09-23T08:02:01.440Z,4.18
2022-09-23T08:05:52.454Z,3.75
2022-09-23T08:08:53.177Z,2.92
2022-09-23T08:12:49.387Z,3.30
2022-09-23T08:16:40.590Z,4.55
2022-09-23T08:20:17.792Z,3.45
2022-09-23T08:23:41.060Z,3.78
2022-09-23T08:30:00.808Z,3.30
2022-09-23T08:32:49.565Z,3.70
2022-09-23T08:34:58.636Z,3.72
2022-09-23T08:41:02.144Z,4.13
2022-09-23T08:44:11.070Z,4.15
2022-09-23T08:46:50.778Z,3.78
2022-09-23T08:49:33.448Z,3.70
2022-09-23T08:52:09.255Z,3.58
2022-09-23T08:54:45.167Z,3.88
2022-09-23T08:57:31.380Z,3.28
2022-09-23T09:00:01.756Z,3.30
2022-09-23T09:02:30.877Z,3.78
2022-09-23T09:05:03.644Z,3.50
2022-09-23T09:07:37.108Z,3.58
2022-09-23T09:10:14.335Z,3.58
2022-09-23T09:12:45.266Z,4.03
2022-09-23T09:15:16.829Z,4.10
2022-09-23T09:17:56.638Z,4.32
2022-09-23T09:20:29.699Z,4.68
2022-09-23T09:23:01.107Z,3.67
2022-09-23T09:25:44.687Z,3.67
2022-09-23T09:28:18.997Z,3.22
2022-09-23T09:30:52.166Z,3.25
2022-09-23T09:33:25.715Z,4.65
2022-09-23T09:36:08.984Z,3.17
2022-09-23T09:38:38.867Z,4.25
2022-09-23T09:41:16.078Z,3.47
2022-09-23T09:43:49.181Z,3.88
2022-09-23T09:46:34.165Z,4.82
2022-09-23T09:49:11.028Z,4.00
2022-09-23T09:52:11.213Z,3.80
2022-09-23T09:54:41.417Z,4.10
2022-09-23T09:57:33.685Z,4.20
2022-09-23T10:00:35.593Z,4.35
2022-09-23T10:03:09.837Z,4.82
2022-09-23T10:05:49.819Z,3.75
2022-09-23T10:08:26.032Z,4.18
2022-09-23T10:11:02.658Z,4.22
2022-09-23T10:13:31.360Z,3.58
2022-09-23T10:16:02.796Z,3.10
2022-09-23T10:18:35.896Z,3.53
2022-09-23T10:21:09.540Z,3.45
2022-09-23T10:23:43.465Z,3.58
2022-09-23T10:26:17.397Z,3.83
2022-09-23T10:28:51.338Z,3.92
2022-09-23T10:31:25.881Z,3.28
2022-09-23T10:33:57.325Z,3.55
2022-09-23T10:36:26.022Z,4.68
2022-09-23T10:39:18.683Z,3.63
2022-09-23T10:42:15.096Z,3.50
2022-09-23T10:45:17.597Z,4.13
2022-09-23T10:47:56.760Z,4.43
2022-09-23T10:50:38.637Z,3.80
2022-09-23T10:53:16.222Z,4.47
2022-09-23T10:55:58.257Z,3.72
2022-09-23T10:58:58.931Z,4.00
2022-09-23T11:01:38.813Z,4.07
2022-09-23T11:04:29.584Z,4.47
2022-09-23T11:07:10.489Z,3.47
2022-09-23T11:09:49.401Z,3.78
2022-09-23T11:12:27.347Z,3.72
2022-09-23T11:15:20.873Z,3.97
2022-09-23T11:18:11.764Z,3.63
2022-09-23T11:26:47.084Z,3.95
2022-09-23T11:40:40.965Z,4.05
2022-09-23T11:51:47.201Z,4.13
2022-09-23T11:55:19.920Z,3.53
2022-09-23T11:59:18.979Z,4.43
2022-09-23T12:03:45.057Z,4.13
2022-09-23T12:11:47.725Z,3.88
2022-09-23T12:15:06.001Z,4.30
2022-09-23T12:26:50.558Z,5.47
2022-09-23T12:29:19.060Z,5.53
2022-09-23T12:31:48.306Z,5.40
2022-09-23T12:34:31.112Z,5.43
2022-09-23T12:37:04.165Z,5.22
2022-09-23T12:39:34.531Z,5.55
2022-09-23T12:42:06.348Z,5.47
2022-09-23T12:44:40.685Z,5.80
2022-09-23T12:47:39.959Z,5.25
2022-09-23T12:50:42.777Z,5.65
2022-09-23T12:53:47.676Z,6.10
2022-09-23T12:56:17.291Z,5.70
2022-09-23T12:59:00.885Z,5.72
2022-09-23T13:01:29.617Z,4.65
2022-09-23T13:04:17.032Z,5.57
2022-09-23T13:06:58.722Z,4.75
2022-09-23T13:09:30.179Z,6.07
2022-09-23T13:12:01.470Z,6.60
2022-09-23T13:14:33.765Z,6.47
2022-09-23T13:17:02.086Z,5.47
2022-09-23T13:19:58.476Z,6.25
2022-09-23T13:22:43.623Z,5.95
2022-09-23T13:25:20.772Z,6.03
2022-09-23T13:27:52.991Z,5.90
2022-09-23T13:30:26.636Z,6.97
2022-09-23T13:33:13.840Z,6.65
2022-09-23T13:35:45.631Z,6.80
2022-09-23T13:38:26.100Z,7.10
2022-09-23T13:40:56.061Z,6.25
2022-09-23T13:43:28.211Z,6.57
2022-09-23T13:45:57.841Z,6.63
2022-09-23T13:48:27.237Z,6.68
2022-09-23T13:50:56.359Z,6.60
2022-09-23T13:53:28.124Z,7.65
2022-09-23T13:56:05.951Z,7.65
2022-09-23T13:58:35.965Z,8.45
2022-09-23T14:01:10.108Z,8.57
2022-09-23T14:03:40.484Z,8.70
2022-09-23T14:06:12.990Z,9.63
2022-09-23T14:08:45.479Z,9.02
2022-09-23T14:11:19.523Z,8.95
2022-09-23T14:13:51.044Z,9.63
2022-09-23T14:16:21.329Z,9.05
2022-09-23T14:18:52.624Z,9.57
2022-09-23T14:22:55.330Z,10.27
2022-09-23T14:26:19.503Z,10.02
2022-09-23T14:33:43.758Z,10.60
2022-09-23T14:37:11.696Z,11.07
2022-09-23T14:40:42.496Z,11.30
2022-09-23T14:44:20.063Z,12.13
2022-09-23T14:55:37.112Z,13.00
2022-09-23T14:59:28.670Z,13.10
2022-09-23T15:10:15.471Z,14.25
2022-09-23T15:17:40.975Z,12.48
2022-09-23T15:25:08.397Z,12.63
2022-09-23T15:27:40.870Z,13.25
2022-09-23T15:30:17.149Z,13.52
2022-09-23T15:36:26.577Z,14.32
2022-09-23T15:42:39.792Z,14.32
2022-09-23T15:45:12.159Z,11.75
2022-09-23T15:47:42.756Z,12.77
2022-09-23T15:50:13.830Z,14.88
2022-09-23T15:52:45.017Z,12.63
2022-09-23T15:55:18.225Z,10.38
2022-09-23T15:57:46.503Z,10.27
2022-09-23T16:00:16.047Z,9.43
2022-09-23T16:02:47.256Z,9.05
2022-09-23T16:05:26.609Z,9.38
2022-09-23T16:07:54.881Z,9.88
2022-09-23T16:10:23.965Z,10.35
2022-09-23T16:12:54.583Z,9.93
2022-09-23T16:15:26.203Z,9.10
2022-09-23T16:17:55.847Z,10.02
2022-09-23T16:20:25.878Z,11.50
2022-09-23T16:22:57.277Z,11.75
2022-09-23T16:25:28.335Z,11.73
2022-09-23T16:28:45.871Z,10.98
2022-09-23T16:31:52.757Z,11.50
2022-09-23T16:40:14.579Z,12.15
2022-09-23T16:46:39.207Z,15.35
2022-09-23T16:49:47.822Z,15.45
2022-09-23T16:53:41.022Z,14.65
2022-09-23T16:57:40.127Z,17.70
2022-09-23T17:00:52.670Z,17.95
2022-09-23T17:07:33.413Z,16.35
2022-09-23T17:18:19.656Z,18.30
2022-09-23T17:21:39.691Z,19.35
2022-09-23T17:25:13.044Z,19.27
2022-09-23T17:32:31.534Z,22.65
2022-09-23T17:39:35.308Z,19.02
2022-09-23T17:43:34.277Z,14.77
2022-09-23T17:46:59.456Z,13.82
2022-09-23T17:54:16.339Z,13.80
2022-09-23T17:57:20.870Z,18.58
2022-09-23T18:04:42.334Z,8.65
2022-09-23T18:08:06.203Z,10.65
2022-09-23T18:11:20.762Z,9.20
2022-09-23T18:11:22.887Z,16.23
2022-09-23T18:13:50.322Z,8.77
2022-09-23T18:16:20.578Z,8.32
2022-09-23T18:18:52.929Z,8.85
2022-09-23T18:22:15.323Z,8.52
2022-09-23T18:25:38.809Z,8.85
2022-09-23T18:28:40.411Z,9.18
2022-09-23T18:32:18.274Z,8.60
2022-09-23T18:35:27.542Z,8.90
2022-09-23T18:39:32.307Z,9.00
2022-09-23T18:43:11.044Z,9.20
2022-09-23T18:46:44.545Z,9.40
2022-09-23T18:50:28.755Z,9.45
2022-09-23T18:52:46.029Z,8.32
2022-09-23T18:55:14.625Z,9.00
2022-09-23T18:57:43.083Z,9.10
2022-09-23T19:00:12.364Z,9.90
2022-09-23T19:02:43.071Z,9.68
2022-09-23T19:05:11.434Z,9.75
2022-09-23T19:07:40.529Z,15.27
2022-09-23T19:10:10.041Z,14.38
2022-09-23T19:12:38.374Z,10.38
2022-09-23T19:15:07.380Z,11.23
2022-09-23T19:17:35.598Z,10.70
2022-09-23T19:20:05.580Z,10.93
2022-09-23T19:22:34.583Z,10.48
2022-09-23T19:25:02.876Z,9.98
2022-09-23T19:27:31.191Z,9.50
2022-09-23T19:29:59.879Z,10.55
2022-09-23T19:32:28.152Z,9.73
2022-09-23T19:34:59.726Z,10.88
2022-09-23T19:37:29.364Z,10.93
2022-09-23T19:39:57.959Z,10.98
2022-09-23T19:42:28.227Z,10.75
2022-09-23T19:44:56.433Z,13.23
2022-09-23T19:47:25.056Z,11.52
2022-09-23T19:49:53.827Z,10.57
2022-09-23T19:52:22.078Z,11.88
2022-09-23T19:54:51.778Z,11.10
2022-09-23T19:57:20.190Z,10.65
2022-09-23T20:00:34.653Z,12.57
2022-09-23T20:04:15.166Z,12.52
2022-09-23T20:08:11.475Z,10.75
2022-09-23T20:12:17.724Z,11.50
2022-09-23T20:16:07.739Z,12.05
2022-09-23T20:21:34.016Z,11.57
2022-09-23T20:27:31.388Z,10.80
2022-09-23T20:30:44.015Z,11.65
2022-09-23T20:34:00.020Z,11.18
2022-09-23T20:37:31.621Z,10.65
2022-09-23T20:41:21.977Z,10.35
2022-09-23T20:45:45.248Z,11.65
2022-09-23T20:49:04.385Z,11.73
2022-09-23T20:51:39.335Z,12.45
2022-09-23T20:54:32.876Z,12.38
2022-09-23T20:58:45.145Z,12.55
2022-09-23T21:06:50.597Z,11.20
2022-09-23T21:11:35.530Z,12.63
2022-09-23T21:18:54.075Z,13.77
2022-09-23T21:25:12.123Z,14.57
2022-09-23T21:29:24.812Z,10.10
2022-09-23T21:33:10.196Z,15.10
2022-09-23T21:43:44.651Z,11.60
2022-09-23T21:59:40.186Z,10.82
2022-09-23T22:03:30.056Z,10.30
2022-09-23T22:07:41.805Z,9.25
2022-09-23T22:11:14.913Z,10.10
2022-09-23T22:17:51.906Z,10.45
2022-09-23T22:25:51.528Z,9.95
2022-09-23T22:29:49.978Z,7.28
2022-09-23T22:33:17.131Z,9.45
2022-09-23T22:36:29.055Z,8.63
2022-09-23T22:40:36.295Z,6.97
2022-09-23T22:45:06.636Z,7.25
2022-09-23T22:48:00.800Z,7.63
2022-09-23T22:51:14.676Z,7.63
2022-09-23T22:54:45.662Z,7.82
2022-09-23T23:06:10.522Z,7.25
2022-09-23T23:09:57.691Z,7.28
2022-09-23T23:13:42.866Z,8.07
2022-09-23T23:16:48.536Z,7.57
2022-09-23T23:27:53.457Z,9.23
2022-09-23T23:32:43.757Z,9.48
2022-09-23T23:36:26.305Z,9.20
2022-09-23T23:40:06.881Z,9.55
2022-09-23T23:44:03.951Z,10.07
2022-09-23T23:47:06.532Z,11.23
2022-09-23T23:51:15.622Z,10.93
2022-09-23T23:58:07.951Z,11.40
2022-09-23T23:59:33.893Z,12.13
